sensor_id;sensor_type;location;lat;lon;timestamp;P1;durP1;ratioP1;P2;durP2;ratioP2
10122;SDS011;5101;49.038;8.710;2022-10-17T00:00:41;11.88;;;3.38;;
10122;SDS011;5101;49.038;8.710;2022-10-17T00:03:07;6.28;;;2.75;;
10122;SDS011;5101;49.038;8.710;2022-10-17T00:05:33;16.45;;;3.20;;
10122;SDS011;5101;49.038;8.710;2022-10-17T00:08:05;11.20;;;2.78;;
10122;SDS011;5101;49.038;8.710;2022-10-17T00:10:30;3.97;;;2.28;;
10122;SDS011;5101;49.038;8.710;2022-10-17T00:12:56;6.25;;;2.65;;
10122;SDS011;5101;49.038;8.710;2022-10-17T00:15:21;9.88;;;2.55;;
10122;SDS011;5101;49.038;8.710;2022-10-17T00:17:47;7.05;;;2.50;;
10122;SDS011;5101;49.038;8.710;2022-10-17T00:20:12;7.00;;;2.55;;
10122;SDS011;5101;49.038;8.710;2022-10-17T00:22:39;5.50;;;2.60;;
10122;SDS011;5101;49.038;8.710;2022-10-17T00:25:05;3.25;;;2.47;;
10122;SDS011;5101;49.038;8.710;2022-10-17T00:27:33;5.95;;;2.55;;
10122;SDS011;5101;49.038;8.710;2022-10-17T00:30:00;10.75;;;2.30;;
10122;SDS011;5101;49.038;8.710;2022-10-17T00:32:25;9.57;;;2.50;;
10122;SDS011;5101;49.038;8.710;2022-10-17T00:34:51;10.00;;;2.30;;
10122;SDS011;5101;49.038;8.710;2022-10-17T00:37:16;6.75;;;2.35;;
10122;SDS011;5101;49.038;8.710;2022-10-17T00:39:42;4.30;;;2.17;;
10122;SDS011;5101;49.038;8.710;2022-10-17T00:42:09;7.60;;;2.10;;
10122;SDS011;5101;49.038;8.710;2022-10-17T00:47:07;17.88;;;3.25;;
10122;SDS011;5101;49.038;8.710;2022-10-17T00:49:38;7.55;;;2.00;;
10122;SDS011;5101;49.038;8.710;2022-10-17T00:52:05;8.27;;;2.30;;
10122;SDS011;5101;49.038;8.710;2022-10-17T00:54:34;7.18;;;2.13;;
10122;SDS011;5101;49.038;8.710;2022-10-17T00:57:03;5.28;;;2.42;;
10122;SDS011;5101;49.038;8.710;2022-10-17T00:59:31;6.32;;;2.88;;
10122;SDS011;5101;49.038;8.710;2022-10-17T01:02:05;7.25;;;2.05;;
10122;SDS011;5101;49.038;8.710;2022-10-17T01:04:33;6.43;;;2.17;;
10122;SDS011;5101;49.038;8.710;2022-10-17T01:07:00;8.55;;;2.10;;
10122;SDS011;5101;49.038;8.710;2022-10-17T01:09:26;2.72;;;1.85;;
10122;SDS011;5101;49.038;8.710;2022-10-17T01:17:35;5.65;;;2.33;;
10122;SDS011;5101;49.038;8.710;2022-10-17T01:23:17;6.03;;;2.28;;
10122;SDS011;5101;49.038;8.710;2022-10-17T01:31:47;5.50;;;2.15;;
10122;SDS011;5101;49.038;8.710;2022-10-17T01:34:31;8.45;;;2.15;;
10122;SDS011;5101;49.038;8.710;2022-10-17T01:37:28;3.15;;;1.75;;
10122;SDS011;5101;49.038;8.710;2022-10-17T01:45:20;6.45;;;2.05;;
10122;SDS011;5101;49.038;8.710;2022-10-17T01:47:58;3.72;;;2.10;;
10122;SDS011;5101;49.038;8.710;2022-10-17T01:50:37;10.43;;;2.53;;
10122;SDS011;5101;49.038;8.710;2022-10-17T01:53:14;7.38;;;2.20;;
10122;SDS011;5101;49.038;8.710;2022-10-17T01:55:47;9.18;;;2.40;;
10122;SDS011;5101;49.038;8.710;2022-10-17T02:00:50;5.45;;;2.25;;
10122;SDS011;5101;49.038;8.710;2022-10-17T02:03:17;4.82;;;2.50;;
10122;SDS011;5101;49.038;8.710;2022-10-17T02:05:44;6.00;;;2.28;;
10122;SDS011;5101;49.038;8.710;2022-10-17T02:08:10;7.20;;;2.47;;
10122;SDS011;5101;49.038;8.710;2022-10-17T02:13:18;2.58;;;2.30;;
10122;SDS011;5101;49.038;8.710;2022-10-17T02:16:11;3.15;;;2.08;;
10122;SDS011;5101;49.038;8.710;2022-10-17T02:21:30;4.55;;;2.47;;
10122;SDS011;5101;49.038;8.710;2022-10-17T02:24:01;3.63;;;2.47;;
10122;SDS011;5101;49.038;8.710;2022-10-17T02:26:43;7.53;;;2.13;;
10122;SDS011;5101;49.038;8.710;2022-10-17T02:29:20;5.00;;;2.13;;
10122;SDS011;5101;49.038;8.710;2022-10-17T02:31:52;6.07;;;2.22;;
10122;SDS011;5101;49.038;8.710;2022-10-17T02:34:38;6.85;;;2.05;;
10122;SDS011;5101;49.038;8.710;2022-10-17T02:37:08;9.15;;;2.28;;
10122;SDS011;5101;49.038;8.710;2022-10-17T02:39:37;4.72;;;2.25;;
10122;SDS011;5101;49.038;8.710;2022-10-17T02:42:05;8.88;;;1.95;;
10122;SDS011;5101;49.038;8.710;2022-10-17T02:44:33;3.92;;;2.60;;
10122;SDS011;5101;49.038;8.710;2022-10-17T02:47:17;3.45;;;2.20;;
10122;SDS011;5101;49.038;8.710;2022-10-17T02:49:51;4.22;;;2.97;;
10122;SDS011;5101;49.038;8.710;2022-10-17T02:55:11;3.42;;;2.40;;
10122;SDS011;5101;49.038;8.710;2022-10-17T02:57:48;3.30;;;2.42;;
10122;SDS011;5101;49.038;8.710;2022-10-17T03:00:20;3.28;;;2.03;;
10122;SDS011;5101;49.038;8.710;2022-10-17T03:02:49;6.65;;;2.35;;
10122;SDS011;5101;49.038;8.710;2022-10-17T03:05:26;9.63;;;2.35;;
10122;SDS011;5101;49.038;8.710;2022-10-17T03:07:53;7.10;;;2.10;;
10122;SDS011;5101;49.038;8.710;2022-10-17T03:10:20;5.50;;;2.38;;
10122;SDS011;5101;49.038;8.710;2022-10-17T03:12:47;11.73;;;2.65;;
10122;SDS011;5101;49.038;8.710;2022-10-17T03:15:12;6.15;;;2.60;;
10122;SDS011;5101;49.038;8.710;2022-10-17T03:17:38;7.43;;;2.25;;
10122;SDS011;5101;49.038;8.710;2022-10-17T03:20:04;3.85;;;2.10;;
10122;SDS011;5101;49.038;8.710;2022-10-17T03:22:31;8.40;;;2.28;;
10122;SDS011;5101;49.038;8.710;2022-10-17T03:24:57;8.15;;;2.30;;
10122;SDS011;5101;49.038;8.710;2022-10-17T03:27:23;7.15;;;2.05;;
10122;SDS011;5101;49.038;8.710;2022-10-17T03:29:48;4.00;;;2.17;;
10122;SDS011;5101;49.038;8.710;2022-10-17T03:32:14;6.28;;;2.22;;
10122;SDS011;5101;49.038;8.710;2022-10-17T03:34:39;4.72;;;2.40;;
10122;SDS011;5101;49.038;8.710;2022-10-17T03:37:05;6.28;;;2.35;;
10122;SDS011;5101;49.038;8.710;2022-10-17T03:39:30;4.00;;;2.05;;
10122;SDS011;5101;49.038;8.710;2022-10-17T03:41:56;5.95;;;2.22;;
10122;SDS011;5101;49.038;8.710;2022-10-17T03:44:21;4.43;;;2.25;;
10122;SDS011;5101;49.038;8.710;2022-10-17T03:46:47;6.30;;;2.40;;
10122;SDS011;5101;49.038;8.710;2022-10-17T03:49:12;3.55;;;2.47;;
10122;SDS011;5101;49.038;8.710;2022-10-17T03:51:38;9.80;;;2.60;;
10122;SDS011;5101;49.038;8.710;2022-10-17T03:54:03;5.25;;;2.28;;
10122;SDS011;5101;49.038;8.710;2022-10-17T03:56:29;5.18;;;2.33;;
10122;SDS011;5101;49.038;8.710;2022-10-17T03:58:55;2.97;;;2.13;;
10122;SDS011;5101;49.038;8.710;2022-10-17T04:01:20;9.82;;;2.63;;
10122;SDS011;5101;49.038;8.710;2022-10-17T04:03:50;6.20;;;2.25;;
10122;SDS011;5101;49.038;8.710;2022-10-17T04:06:17;5.57;;;2.42;;
10122;SDS011;5101;49.038;8.710;2022-10-17T04:08:43;4.15;;;2.50;;
10122;SDS011;5101;49.038;8.710;2022-10-17T04:11:10;3.58;;;2.30;;
10122;SDS011;5101;49.038;8.710;2022-10-17T04:13:39;6.93;;;2.58;;
10122;SDS011;5101;49.038;8.710;2022-10-17T04:16:06;4.53;;;2.25;;
10122;SDS011;5101;49.038;8.710;2022-10-17T04:18:34;5.93;;;2.80;;
10122;SDS011;5101;49.038;8.710;2022-10-17T04:21:00;6.68;;;2.65;;
10122;SDS011;5101;49.038;8.710;2022-10-17T04:23:27;4.72;;;3.42;;
10122;SDS011;5101;49.038;8.710;2022-10-17T04:25:56;7.63;;;2.72;;
10122;SDS011;5101;49.038;8.710;2022-10-17T04:28:22;7.03;;;3.08;;
10122;SDS011;5101;49.038;8.710;2022-10-17T04:30:56;8.80;;;2.90;;
10122;SDS011;5101;49.038;8.710;2022-10-17T04:33:21;5.55;;;2.63;;
10122;SDS011;5101;49.038;8.710;2022-10-17T04:38:26;5.68;;;3.13;;
10122;SDS011;5101;49.038;8.710;2022-10-17T04:40:52;6.32;;;2.20;;
10122;SDS011;5101;49.038;8.710;2022-10-17T04:43:18;4.05;;;2.53;;
10122;SDS011;5101;49.038;8.710;2022-10-17T04:45:43;3.40;;;2.35;;
10122;SDS011;5101;49.038;8.710;2022-10-17T04:48:09;7.15;;;2.40;;
10122;SDS011;5101;49.038;8.710;2022-10-17T04:50:34;6.95;;;2.72;;
10122;SDS011;5101;49.038;8.710;2022-10-17T04:53:00;5.32;;;2.30;;
10122;SDS011;5101;49.038;8.710;2022-10-17T04:55:25;7.82;;;2.58;;
10122;SDS011;5101;49.038;8.710;2022-10-17T04:57:51;7.93;;;2.80;;
10122;SDS011;5101;49.038;8.710;2022-10-17T05:00:16;2.90;;;1.92;;
10122;SDS011;5101;49.038;8.710;2022-10-17T05:02:42;8.02;;;2.80;;
10122;SDS011;5101;49.038;8.710;2022-10-17T05:05:08;3.42;;;2.60;;
10122;SDS011;5101;49.038;8.710;2022-10-17T05:07:33;4.20;;;2.40;;
10122;SDS011;5101;49.038;8.710;2022-10-17T05:09:59;5.07;;;2.70;;
10122;SDS011;5101;49.038;8.710;2022-10-17T05:12:24;6.57;;;2.65;;
10122;SDS011;5101;49.038;8.710;2022-10-17T05:14:50;8.55;;;3.15;;
10122;SDS011;5101;49.038;8.710;2022-10-17T05:17:15;5.55;;;2.85;;
10122;SDS011;5101;49.038;8.710;2022-10-17T05:19:41;10.50;;;2.60;;
10122;SDS011;5101;49.038;8.710;2022-10-17T05:22:07;7.80;;;2.60;;
10122;SDS011;5101;49.038;8.710;2022-10-17T05:24:32;7.22;;;2.90;;
10122;SDS011;5101;49.038;8.710;2022-10-17T05:26:58;7.97;;;3.30;;
10122;SDS011;5101;49.038;8.710;2022-10-17T05:29:23;9.07;;;3.20;;
10122;SDS011;5101;49.038;8.710;2022-10-17T05:31:49;7.95;;;2.72;;
10122;SDS011;5101;49.038;8.710;2022-10-17T05:34:15;3.30;;;3.00;;
10122;SDS011;5101;49.038;8.710;2022-10-17T05:36:40;6.10;;;2.70;;
10122;SDS011;5101;49.038;8.710;2022-10-17T05:39:06;8.40;;;3.53;;
10122;SDS011;5101;49.038;8.710;2022-10-17T05:41:32;9.80;;;2.65;;
10122;SDS011;5101;49.038;8.710;2022-10-17T05:43:58;5.32;;;2.60;;
10122;SDS011;5101;49.038;8.710;2022-10-17T05:46:23;11.45;;;6.07;;
10122;SDS011;5101;49.038;8.710;2022-10-17T05:48:49;6.30;;;3.20;;
10122;SDS011;5101;49.038;8.710;2022-10-17T05:51:15;5.75;;;3.03;;
10122;SDS011;5101;49.038;8.710;2022-10-17T05:53:40;5.72;;;3.03;;
10122;SDS011;5101;49.038;8.710;2022-10-17T05:56:07;5.30;;;3.50;;
10122;SDS011;5101;49.038;8.710;2022-10-17T05:58:35;6.85;;;3.05;;
10122;SDS011;5101;49.038;8.710;2022-10-17T06:01:04;8.52;;;3.28;;
10122;SDS011;5101;49.038;8.710;2022-10-17T06:03:30;4.60;;;3.58;;
10122;SDS011;5101;49.038;8.710;2022-10-17T06:06:01;8.98;;;4.25;;
10122;SDS011;5101;49.038;8.710;2022-10-17T06:08:32;6.38;;;3.10;;
10122;SDS011;5101;49.038;8.710;2022-10-17T06:10:57;13.85;;;4.72;;
10122;SDS011;5101;49.038;8.710;2022-10-17T06:13:23;4.35;;;3.67;;
10122;SDS011;5101;49.038;8.710;2022-10-17T06:15:48;11.88;;;3.70;;
10122;SDS011;5101;49.038;8.710;2022-10-17T06:18:14;7.50;;;2.75;;
10122;SDS011;5101;49.038;8.710;2022-10-17T06:20:39;6.10;;;3.03;;
10122;SDS011;5101;49.038;8.710;2022-10-17T06:23:05;6.97;;;3.75;;
10122;SDS011;5101;49.038;8.710;2022-10-17T06:25:31;6.32;;;3.22;;
10122;SDS011;5101;49.038;8.710;2022-10-17T06:27:57;9.00;;;3.33;;
10122;SDS011;5101;49.038;8.710;2022-10-17T06:30:23;8.57;;;3.83;;
10122;SDS011;5101;49.038;8.710;2022-10-17T06:32:48;6.32;;;3.75;;
10122;SDS011;5101;49.038;8.710;2022-10-17T06:35:15;6.93;;;4.50;;
10122;SDS011;5101;49.038;8.710;2022-10-17T06:37:40;7.72;;;4.43;;
10122;SDS011;5101;49.038;8.710;2022-10-17T06:40:06;5.65;;;4.00;;
10122;SDS011;5101;49.038;8.710;2022-10-17T06:42:34;6.38;;;3.60;;
10122;SDS011;5101;49.038;8.710;2022-10-17T06:44:59;9.88;;;3.50;;
10122;SDS011;5101;49.038;8.710;2022-10-17T06:47:25;4.10;;;3.63;;
10122;SDS011;5101;49.038;8.710;2022-10-17T06:49:50;7.78;;;3.70;;
10122;SDS011;5101;49.038;8.710;2022-10-17T06:52:16;7.70;;;3.67;;
10122;SDS011;5101;49.038;8.710;2022-10-17T06:54:42;7.30;;;3.45;;
10122;SDS011;5101;49.038;8.710;2022-10-17T06:57:08;7.72;;;3.80;;
10122;SDS011;5101;49.038;8.710;2022-10-17T06:59:33;8.80;;;3.90;;
10122;SDS011;5101;49.038;8.710;2022-10-17T07:01:59;8.95;;;3.97;;
10122;SDS011;5101;49.038;8.710;2022-10-17T07:04:26;8.25;;;4.50;;
10122;SDS011;5101;49.038;8.710;2022-10-17T07:06:52;9.80;;;4.57;;
10122;SDS011;5101;49.038;8.710;2022-10-17T07:09:17;8.98;;;4.07;;
10122;SDS011;5101;49.038;8.710;2022-10-17T07:11:43;14.00;;;5.10;;
10122;SDS011;5101;49.038;8.710;2022-10-17T07:14:09;6.82;;;4.32;;
10122;SDS011;5101;49.038;8.710;2022-10-17T07:16:34;9.07;;;4.07;;
10122;SDS011;5101;49.038;8.710;2022-10-17T07:19:01;11.05;;;3.55;;
10122;SDS011;5101;49.038;8.710;2022-10-17T07:21:26;8.40;;;3.53;;
10122;SDS011;5101;49.038;8.710;2022-10-17T07:23:52;8.60;;;3.38;;
10122;SDS011;5101;49.038;8.710;2022-10-17T07:26:17;10.43;;;3.40;;
10122;SDS011;5101;49.038;8.710;2022-10-17T07:28:44;10.73;;;4.35;;
10122;SDS011;5101;49.038;8.710;2022-10-17T07:31:12;8.50;;;3.05;;
10122;SDS011;5101;49.038;8.710;2022-10-17T07:33:40;5.15;;;2.85;;
10122;SDS011;5101;49.038;8.710;2022-10-17T07:36:06;8.88;;;3.10;;
10122;SDS011;5101;49.038;8.710;2022-10-17T07:38:32;9.25;;;3.30;;
10122;SDS011;5101;49.038;8.710;2022-10-17T07:40:59;6.00;;;2.80;;
10122;SDS011;5101;49.038;8.710;2022-10-17T07:43:27;5.97;;;2.80;;
10122;SDS011;5101;49.038;8.710;2022-10-17T07:45:53;3.15;;;2.50;;
10122;SDS011;5101;49.038;8.710;2022-10-17T07:48:20;8.45;;;2.38;;
10122;SDS011;5101;49.038;8.710;2022-10-17T07:50:46;3.60;;;2.30;;
10122;SDS011;5101;49.038;8.710;2022-10-17T07:53:13;6.05;;;2.88;;
10122;SDS011;5101;49.038;8.710;2022-10-17T07:55:39;3.58;;;3.20;;
10122;SDS011;5101;49.038;8.710;2022-10-17T07:58:05;4.38;;;2.42;;
10122;SDS011;5101;49.038;8.710;2022-10-17T08:00:31;8.38;;;2.85;;
10122;SDS011;5101;49.038;8.710;2022-10-17T08:02:57;3.97;;;2.30;;
10122;SDS011;5101;49.038;8.710;2022-10-17T08:05:22;2.50;;;2.03;;
10122;SDS011;5101;49.038;8.710;2022-10-17T08:07:48;2.92;;;1.90;;
10122;SDS011;5101;49.038;8.710;2022-10-17T08:10:14;2.28;;;2.05;;
10122;SDS011;5101;49.038;8.710;2022-10-17T08:12:40;5.07;;;1.98;;
10122;SDS011;5101;49.038;8.710;2022-10-17T08:15:07;6.30;;;2.65;;
10122;SDS011;5101;49.038;8.710;2022-10-17T08:17:33;4.78;;;2.63;;
10122;SDS011;5101;49.038;8.710;2022-10-17T08:20:00;5.68;;;2.13;;
10122;SDS011;5101;49.038;8.710;2022-10-17T08:22:26;8.55;;;1.90;;
10122;SDS011;5101;49.038;8.710;2022-10-17T08:24:51;5.75;;;2.20;;
10122;SDS011;5101;49.038;8.710;2022-10-17T08:27:17;3.28;;;1.95;;
10122;SDS011;5101;49.038;8.710;2022-10-17T08:29:48;2.88;;;1.85;;
10122;SDS011;5101;49.038;8.710;2022-10-17T08:32:17;5.75;;;2.60;;
10122;SDS011;5101;49.038;8.710;2022-10-17T08:34:47;5.35;;;2.03;;
10122;SDS011;5101;49.038;8.710;2022-10-17T08:37:13;2.35;;;1.70;;
10122;SDS011;5101;49.038;8.710;2022-10-17T08:39:42;3.03;;;1.70;;
10122;SDS011;5101;49.038;8.710;2022-10-17T08:47:57;6.03;;;1.75;;
10122;SDS011;5101;49.038;8.710;2022-10-17T08:53:04;5.30;;;1.75;;
10122;SDS011;5101;49.038;8.710;2022-10-17T08:55:52;6.00;;;1.50;;
10122;SDS011;5101;49.038;8.710;2022-10-17T08:58:27;6.85;;;1.55;;
10122;SDS011;5101;49.038;8.710;2022-10-17T09:00:58;3.85;;;1.50;;
10122;SDS011;5101;49.038;8.710;2022-10-17T09:09:33;3.97;;;1.63;;
10122;SDS011;5101;49.038;8.710;2022-10-17T09:19:54;3.10;;;1.65;;
10122;SDS011;5101;49.038;8.710;2022-10-17T09:22:37;5.57;;;1.63;;
10122;SDS011;5101;49.038;8.710;2022-10-17T09:25:24;4.68;;;1.38;;
10122;SDS011;5101;49.038;8.710;2022-10-17T09:33:44;2.42;;;1.30;;
10122;SDS011;5101;49.038;8.710;2022-10-17T09:36:22;5.28;;;1.58;;
10122;SDS011;5101;49.038;8.710;2022-10-17T09:38:53;9.32;;;1.50;;
10122;SDS011;5101;49.038;8.710;2022-10-17T09:41:38;10.40;;;1.67;;
10122;SDS011;5101;49.038;8.710;2022-10-17T09:46:55;7.05;;;1.70;;
10122;SDS011;5101;49.038;8.710;2022-10-17T09:49:38;4.43;;;1.55;;
10122;SDS011;5101;49.038;8.710;2022-10-17T09:52:16;6.45;;;1.45;;
10122;SDS011;5101;49.038;8.710;2022-10-17T09:54:50;2.10;;;1.48;;
10122;SDS011;5101;49.038;8.710;2022-10-17T09:57:19;4.80;;;1.40;;
10122;SDS011;5101;49.038;8.710;2022-10-17T09:59:46;4.75;;;1.13;;
10122;SDS011;5101;49.038;8.710;2022-10-17T10:02:21;4.25;;;1.48;;
10122;SDS011;5101;49.038;8.710;2022-10-17T10:07:21;2.40;;;1.30;;
10122;SDS011;5101;49.038;8.710;2022-10-17T10:09:48;5.75;;;1.55;;
10122;SDS011;5101;49.038;8.710;2022-10-17T10:12:15;4.00;;;1.52;;
10122;SDS011;5101;49.038;8.710;2022-10-17T10:14:46;1.92;;;1.35;;
10122;SDS011;5101;49.038;8.710;2022-10-17T10:17:34;8.88;;;1.40;;
10122;SDS011;5101;49.038;8.710;2022-10-17T10:20:02;5.28;;;1.70;;
10122;SDS011;5101;49.038;8.710;2022-10-17T10:23:10;6.55;;;1.80;;
10122;SDS011;5101;49.038;8.710;2022-10-17T10:25:47;4.13;;;1.60;;
10122;SDS011;5101;49.038;8.710;2022-10-17T10:28:25;4.10;;;1.73;;
10122;SDS011;5101;49.038;8.710;2022-10-17T10:30:53;6.03;;;1.48;;
10122;SDS011;5101;49.038;8.710;2022-10-17T10:33:21;2.33;;;1.13;;
10122;SDS011;5101;49.038;8.710;2022-10-17T10:35:57;3.72;;;1.65;;
10122;SDS011;5101;49.038;8.710;2022-10-17T10:38:23;4.10;;;1.40;;
10122;SDS011;5101;49.038;8.710;2022-10-17T10:40:50;5.70;;;1.40;;
10122;SDS011;5101;49.038;8.710;2022-10-17T10:46:03;7.55;;;1.88;;
10122;SDS011;5101;49.038;8.710;2022-10-17T10:48:34;4.53;;;1.40;;
10122;SDS011;5101;49.038;8.710;2022-10-17T10:51:05;4.55;;;1.70;;
10122;SDS011;5101;49.038;8.710;2022-10-17T10:53:54;4.80;;;1.10;;
10122;SDS011;5101;49.038;8.710;2022-10-17T10:56:40;1.75;;;1.25;;
10122;SDS011;5101;49.038;8.710;2022-10-17T11:01:57;7.35;;;1.38;;
10122;SDS011;5101;49.038;8.710;2022-10-17T11:06:52;1.80;;;1.42;;
10122;SDS011;5101;49.038;8.710;2022-10-17T11:09:27;3.08;;;1.40;;
10122;SDS011;5101;49.038;8.710;2022-10-17T11:12:53;4.93;;;1.48;;
10122;SDS011;5101;49.038;8.710;2022-10-17T11:15:17;3.13;;;1.13;;
10122;SDS011;5101;49.038;8.710;2022-10-17T11:18:01;9.85;;;1.90;;
10122;SDS011;5101;49.038;8.710;2022-10-17T11:20:35;4.95;;;1.48;;
10122;SDS011;5101;49.038;8.710;2022-10-17T11:23:39;5.75;;;1.95;;
10122;SDS011;5101;49.038;8.710;2022-10-17T11:26:17;5.28;;;1.63;;
10122;SDS011;5101;49.038;8.710;2022-10-17T11:28:54;5.22;;;1.50;;
10122;SDS011;5101;49.038;8.710;2022-10-17T11:31:22;4.55;;;1.40;;
10122;SDS011;5101;49.038;8.710;2022-10-17T11:34:02;4.53;;;1.35;;
10122;SDS011;5101;49.038;8.710;2022-10-17T11:36:37;3.50;;;1.20;;
10122;SDS011;5101;49.038;8.710;2022-10-17T11:39:09;6.53;;;1.75;;
10122;SDS011;5101;49.038;8.710;2022-10-17T11:41:53;4.85;;;1.40;;
10122;SDS011;5101;49.038;8.710;2022-10-17T11:44:35;4.22;;;1.30;;
10122;SDS011;5101;49.038;8.710;2022-10-17T11:49:34;2.10;;;1.40;;
10122;SDS011;5101;49.038;8.710;2022-10-17T11:55:08;4.63;;;1.25;;
10122;SDS011;5101;49.038;8.710;2022-10-17T12:05:59;2.00;;;1.48;;
10122;SDS011;5101;49.038;8.710;2022-10-17T12:17:03;10.10;;;1.45;;
10122;SDS011;5101;49.038;8.710;2022-10-17T12:19:31;2.63;;;0.93;;
10122;SDS011;5101;49.038;8.710;2022-10-17T12:22:02;6.65;;;1.30;;
10122;SDS011;5101;49.038;8.710;2022-10-17T12:24:55;5.25;;;1.30;;
10122;SDS011;5101;49.038;8.710;2022-10-17T12:32:36;6.43;;;1.92;;
10122;SDS011;5101;49.038;8.710;2022-10-17T12:35:02;7.93;;;2.08;;
10122;SDS011;5101;49.038;8.710;2022-10-17T12:43:31;6.60;;;1.60;;
10122;SDS011;5101;49.038;8.710;2022-10-17T12:45:49;7.75;;;1.73;;
10122;SDS011;5101;49.038;8.710;2022-10-17T12:56:29;2.83;;;1.35;;
10122;SDS011;5101;49.038;8.710;2022-10-17T12:59:06;9.27;;;2.13;;
10122;SDS011;5101;49.038;8.710;2022-10-17T13:01:39;5.75;;;1.13;;
10122;SDS011;5101;49.038;8.710;2022-10-17T13:04:09;11.95;;;1.70;;
10122;SDS011;5101;49.038;8.710;2022-10-17T13:06:37;9.80;;;1.98;;
10122;SDS011;5101;49.038;8.710;2022-10-17T13:09:12;9.10;;;1.42;;
10122;SDS011;5101;49.038;8.710;2022-10-17T13:11:46;2.75;;;1.00;;
10122;SDS011;5101;49.038;8.710;2022-10-17T13:14:13;3.25;;;1.13;;
10122;SDS011;5101;49.038;8.710;2022-10-17T13:16:59;10.95;;;1.67;;
10122;SDS011;5101;49.038;8.710;2022-10-17T13:19:30;13.88;;;1.73;;
10122;SDS011;5101;49.038;8.710;2022-10-17T13:22:49;7.03;;;1.80;;
10122;SDS011;5101;49.038;8.710;2022-10-17T13:25:06;9.50;;;2.00;;
10122;SDS011;5101;49.038;8.710;2022-10-17T13:27:43;5.80;;;1.38;;
10122;SDS011;5101;49.038;8.710;2022-10-17T13:30:26;1.35;;;1.25;;
10122;SDS011;5101;49.038;8.710;2022-10-17T13:32:57;1.73;;;1.25;;
10122;SDS011;5101;49.038;8.710;2022-10-17T13:35:24;5.28;;;1.20;;
10122;SDS011;5101;49.038;8.710;2022-10-17T13:37:59;3.80;;;1.33;;
10122;SDS011;5101;49.038;8.710;2022-10-17T13:40:27;5.32;;;1.35;;
10122;SDS011;5101;49.038;8.710;2022-10-17T13:42:55;7.80;;;1.60;;
10122;SDS011;5101;49.038;8.710;2022-10-17T13:45:29;4.40;;;1.40;;
10122;SDS011;5101;49.038;8.710;2022-10-17T13:48:04;3.90;;;1.20;;
10122;SDS011;5101;49.038;8.710;2022-10-17T13:50:35;5.88;;;1.67;;
10122;SDS011;5101;49.038;8.710;2022-10-17T13:53:49;3.72;;;1.25;;
10122;SDS011;5101;49.038;8.710;2022-10-17T13:56:02;3.15;;;1.55;;
10122;SDS011;5101;49.038;8.710;2022-10-17T13:58:41;10.85;;;1.88;;
10122;SDS011;5101;49.038;8.710;2022-10-17T14:01:09;7.75;;;1.50;;
10122;SDS011;5101;49.038;8.710;2022-10-17T14:03:36;3.88;;;1.58;;
10122;SDS011;5101;49.038;8.710;2022-10-17T14:06:13;5.13;;;1.50;;
10122;SDS011;5101;49.038;8.710;2022-10-17T14:08:47;8.13;;;1.42;;
10122;SDS011;5101;49.038;8.710;2022-10-17T14:11:24;5.15;;;1.45;;
10122;SDS011;5101;49.038;8.710;2022-10-17T14:14:14;2.58;;;1.63;;
10122;SDS011;5101;49.038;8.710;2022-10-17T14:16:46;7.57;;;1.80;;
10122;SDS011;5101;49.038;8.710;2022-10-17T14:21:58;4.50;;;1.08;;
10122;SDS011;5101;49.038;8.710;2022-10-17T14:24:41;3.63;;;1.30;;
10122;SDS011;5101;49.038;8.710;2022-10-17T14:29:55;4.15;;;1.45;;
10122;SDS011;5101;49.038;8.710;2022-10-17T14:32:27;4.97;;;1.60;;
10122;SDS011;5101;49.038;8.710;2022-10-17T14:34:55;9.25;;;1.80;;
10122;SDS011;5101;49.038;8.710;2022-10-17T14:37:30;3.67;;;1.48;;
10122;SDS011;5101;49.038;8.710;2022-10-17T14:39:59;3.35;;;1.40;;
10122;SDS011;5101;49.038;8.710;2022-10-17T14:42:27;5.32;;;1.50;;
10122;SDS011;5101;49.038;8.710;2022-10-17T14:44:53;4.82;;;1.00;;
10122;SDS011;5101;49.038;8.710;2022-10-17T14:47:23;3.20;;;1.90;;
10122;SDS011;5101;49.038;8.710;2022-10-17T14:50:02;4.80;;;1.60;;
10122;SDS011;5101;49.038;8.710;2022-10-17T14:52:30;6.75;;;1.50;;
10122;SDS011;5101;49.038;8.710;2022-10-17T14:54:57;9.90;;;2.00;;
10122;SDS011;5101;49.038;8.710;2022-10-17T15:00:08;5.25;;;1.35;;
10122;SDS011;5101;49.038;8.710;2022-10-17T15:02:38;7.28;;;1.95;;
10122;SDS011;5101;49.038;8.710;2022-10-17T15:05:04;4.03;;;1.58;;
10122;SDS011;5101;49.038;8.710;2022-10-17T15:07:30;1.40;;;1.23;;
10122;SDS011;5101;49.038;8.710;2022-10-17T15:09:55;1.63;;;1.30;;
10122;SDS011;5101;49.038;8.710;2022-10-17T15:12:22;2.28;;;1.20;;
10122;SDS011;5101;49.038;8.710;2022-10-17T15:14:48;1.13;;;1.02;;
10122;SDS011;5101;49.038;8.710;2022-10-17T15:17:29;5.18;;;1.63;;
10122;SDS011;5101;49.038;8.710;2022-10-17T15:19:55;2.00;;;1.13;;
10122;SDS011;5101;49.038;8.710;2022-10-17T15:22:21;1.77;;;1.40;;
10122;SDS011;5101;49.038;8.710;2022-10-17T15:24:47;3.65;;;1.40;;
10122;SDS011;5101;49.038;8.710;2022-10-17T15:27:17;4.65;;;1.45;;
10122;SDS011;5101;49.038;8.710;2022-10-17T15:29:46;5.20;;;1.33;;
10122;SDS011;5101;49.038;8.710;2022-10-17T15:32:12;2.95;;;1.42;;
10122;SDS011;5101;49.038;8.710;2022-10-17T15:34:38;4.30;;;1.40;;
10122;SDS011;5101;49.038;8.710;2022-10-17T15:37:04;4.38;;;1.70;;
10122;SDS011;5101;49.038;8.710;2022-10-17T15:39:31;4.43;;;1.40;;
10122;SDS011;5101;49.038;8.710;2022-10-17T15:41:57;6.43;;;1.58;;
10122;SDS011;5101;49.038;8.710;2022-10-17T15:44:23;2.60;;;1.48;;
10122;SDS011;5101;49.038;8.710;2022-10-17T15:46:49;1.88;;;1.58;;
10122;SDS011;5101;49.038;8.710;2022-10-17T15:49:15;5.22;;;1.90;;
10122;SDS011;5101;49.038;8.710;2022-10-17T15:51:43;5.03;;;1.50;;
10122;SDS011;5101;49.038;8.710;2022-10-17T15:54:09;3.05;;;1.63;;
10122;SDS011;5101;49.038;8.710;2022-10-17T15:56:41;7.18;;;1.90;;
10122;SDS011;5101;49.038;8.710;2022-10-17T15:59:14;6.40;;;1.80;;
10122;SDS011;5101;49.038;8.710;2022-10-17T16:01:43;6.03;;;1.75;;
10122;SDS011;5101;49.038;8.710;2022-10-17T16:04:10;5.20;;;1.88;;
10122;SDS011;5101;49.038;8.710;2022-10-17T16:06:38;3.33;;;1.98;;
10122;SDS011;5101;49.038;8.710;2022-10-17T16:09:04;2.58;;;2.05;;
10122;SDS011;5101;49.038;8.710;2022-10-17T16:11:36;5.43;;;2.10;;
10122;SDS011;5101;49.038;8.710;2022-10-17T16:14:05;4.68;;;2.42;;
10122;SDS011;5101;49.038;8.710;2022-10-17T16:16:35;3.92;;;2.70;;
10122;SDS011;5101;49.038;8.710;2022-10-17T16:19:01;4.07;;;2.80;;
10122;SDS011;5101;49.038;8.710;2022-10-17T16:21:28;10.45;;;2.92;;
10122;SDS011;5101;49.038;8.710;2022-10-17T16:23:56;7.15;;;3.35;;
10122;SDS011;5101;49.038;8.710;2022-10-17T16:26:22;11.15;;;3.08;;
10122;SDS011;5101;49.038;8.710;2022-10-17T16:28:48;13.50;;;4.20;;
10122;SDS011;5101;49.038;8.710;2022-10-17T16:31:17;10.30;;;5.97;;
10122;SDS011;5101;49.038;8.710;2022-10-17T16:33:48;13.32;;;5.82;;
10122;SDS011;5101;49.038;8.710;2022-10-17T16:36:16;14.27;;;7.40;;
10122;SDS011;5101;49.038;8.710;2022-10-17T16:38:42;12.75;;;4.88;;
10122;SDS011;5101;49.038;8.710;2022-10-17T16:41:19;8.65;;;3.75;;
10122;SDS011;5101;49.038;8.710;2022-10-17T16:43:46;9.95;;;4.03;;
10122;SDS011;5101;49.038;8.710;2022-10-17T16:46:12;9.23;;;4.93;;
10122;SDS011;5101;49.038;8.710;2022-10-17T16:48:38;12.35;;;3.17;;
10122;SDS011;5101;49.038;8.710;2022-10-17T16:51:03;8.43;;;3.28;;
10122;SDS011;5101;49.038;8.710;2022-10-17T16:53:29;11.13;;;3.67;;
10122;SDS011;5101;49.038;8.710;2022-10-17T16:56:02;6.93;;;2.75;;
10122;SDS011;5101;49.038;8.710;2022-10-17T16:58:28;7.53;;;2.40;;
10122;SDS011;5101;49.038;8.710;2022-10-17T17:00:59;11.88;;;3.42;;
10122;SDS011;5101;49.038;8.710;2022-10-17T17:03:25;9.65;;;2.55;;
10122;SDS011;5101;49.038;8.710;2022-10-17T17:05:51;9.55;;;2.85;;
10122;SDS011;5101;49.038;8.710;2022-10-17T17:08:17;9.55;;;2.33;;
10122;SDS011;5101;49.038;8.710;2022-10-17T17:10:46;13.10;;;2.80;;
10122;SDS011;5101;49.038;8.710;2022-10-17T17:13:14;8.85;;;2.33;;
10122;SDS011;5101;49.038;8.710;2022-10-17T17:15:40;11.65;;;2.50;;
10122;SDS011;5101;49.038;8.710;2022-10-17T17:18:06;6.90;;;2.30;;
10122;SDS011;5101;49.038;8.710;2022-10-17T17:20:32;17.38;;;2.80;;
10122;SDS011;5101;49.038;8.710;2022-10-17T17:22:58;7.57;;;2.70;;